This site, now in its 15th season, is a labour of love and fun from one of Ottawa's most avid time trialists and number crunchers. It adheres to and is permitted by the laws of Canada, promotes the objectives of every bicycle club whose results are shown, and is donated free of charge by myself for your enjoyment and usage. If you would like results from series you ride in to be shown here, give me (celia@drmath.ca) a shout!


Index Page
ATT OTT WTT AATT CFCTT VVVTT
Help resultformat:
Case-sensitive

OBC Open TT Series - 1994-Sep-08 - 15km (Rockliffe Pkwy) (EvtFactor = 0.8957)

Weather (18:00): Mostly Cloudy. Temp.: 21.4C, Humidity: 48%, DewPoint: 10.0C, Wind: W 15km/h, Pressure: 99.82kPa, Visibility: 40.2km.
Weather (19:00): Mostly Cloudy. Temp.: 19.4C, Humidity: 56%, DewPoint: 10.5C, Wind: WSW 13km/h, Pressure: 99.89kPa, Visibility: 32.2km.
Weather (20:00): Mostly Cloudy. Temp.: 17.5C, Humidity: 68%, DewPoint: 11.5C, Wind: WSW 9km/h, Pressure: 99.93kPa, Visibility: 24.1km.

Send photos with description (when/where/what) of yourself on or off of bike to celia@drmath.ca

 
 

BESTS?
 
1 Roy, Patrick OBC 20:08 44.702 1/59 OVAM 1/14 0.9368
2 Large, John --- 20:35 43.725 2/59 OSEM 1/21 0.8789
3 Parkin, Brian OBC 20:47 43.304 3/59 OVAM 2/14 0.9573
4 Field, Kevin --- 20:50 43.200 4/59 OSEM 2/21 0.9597
5 Boudreau, Marc --- 21:06 42.654 5/59 OSEM 3/21 1.0287
6 Hinz, Richard OBC 21:07 42.620 6/59 OVAM 3/14 0.9718
7 Aller, Brian --- 21:12 42.453 7/59 OVAM 4/14 0.9743
Buffa, Alex  OBC 21:12 42.453 7/59 OSEM 4/21 0.9836
9 Moerman, Bram  OBC 21:17 42.287 9/59 OVBM 1/8 1.0213
10 Higgins, Bryan OBC 21:25 42.023 10/59 OSEM 5/21 0.9495
11 Burge, Craig  --- 21:26 41.991 11/59 OSEM 6/21 0.9228
12 Martignago, Mike OBC 21:27 41.958 12/59 OVAM 5/14 1.0211
13 Morvan, Jacques  OBC 21:31 41.828 13/59 OVBM 2/8 0.9319
14 Guenette, Jean-Yves OBC 21:36 41.667 14/59 OVAM 6/14 0.8633
15 Georgas, Chris OBC 21:38 41.602 15/59 OVBM 3/8 0.8676
16 St-Amour, Pierre OBC 21:42 41.475 16/59 OVAM 7/14 0.9215
17 Bolman, Ben --- 21:50 41.221 17/59 OSEM 7/21  
Reinisch, Stephen --- 21:50 41.221 17/59 OSEM 7/21 0.8940
19 Campbell, Colin  OBC 21:58 40.971 19/59 OSEM 9/21 0.8841
20 Pazdzior, Ellen  OBC 22:07 40.693 20/59 OVAF 1/4 0.9294
21 Simpson, Bob OBC 22:19 40.329 21/59 OVBM 4/8 0.7695
22 Murray, Ken --- 22:21 40.268 22/59 OJUM 1/3 0.9668
A 23 Clarke, David OBC 22:24 40.179 23/59 U18M 1/1 1.1063
24 Krausbar, Gunther OBC 22:27 40.089 24/59 OSEM 10/21 0.8621
25 Humphreys, Les  OBC/ABC 22:47 39.503 25/59 OVBM 5/8 0.8404
Pritlove, James --- 22:47 39.503 25/59 OSEM 11/21 0.9462
27 Leonard, Brent --- 22:56 39.244 27/59 OSEM 12/21  
28 Martin, Gilles OBC 23:02 39.074 28/59 OSEM 13/21 1.0131
29 Richens, Dominic --- 23:15 38.710 29/59 OSEM 14/21 0.9914
30 Reid, Jack --- 23:17 38.654 30/59 G64M 1/1 0.9226
31 Beasley, Graham --- 23:18 38.627 31/59 OVBM 6/8 0.9106
32 Wooldridge, Harry ABC 23:21 38.544 32/59 OVBM 7/8 1.0701
33 Bachman, Mike OBC 23:24 38.462 33/59 OVCM 1/3 0.8950
34 Dorsett, Dave --- 23:25 38.434 34/59 OSEM 15/21  
35 Boissonneault, France OBC 23:31 38.271 35/59 OVAF 2/4 0.9768
36 Somogyi, Michel OBC 23:32 38.244 36/59 OJUM 2/3 0.9623
37 Weiman, David --- 23:41 38.001 37/59 OSEM 16/21 0.9957
38 Roy, Dominique --- 23:48 37.815 38/59 OSEM 17/21 0.9525
39 Budd, Daniel OBC 23:50 37.762 39/59 OSEM 18/21 0.7812
40 Hicks, Terry --- 24:16 37.088 40/59 OVAM 8/14 0.8739
Murray, Val OBC 24:16 37.088 40/59 OCAM 1/1 0.7760
42 Ward, Kevin --- 24:26 36.835 42/59 OVAM 9/14 1.0227
43 Coletta, Andrea --- 24:27 36.810 43/59 OSEF 1/1 0.9089
44 Ajersch, Mary  OBC 24:38 36.536 44/59 OVBF 1/2 0.9521
45 Bridgen, Stuart --- 24:50 36.242 45/59 OVCM 2/3 0.9428
46 Pringle, Paul --- 24:56 36.096 46/59 OVAM 10/14  
47 Sheil, Norman --- 25:03 35.928 47/59 OVCM 3/3 1.0262
48 Atkinson, John OBC 25:21 35.503 48/59 OVAM 11/14 0.8486
49 Wennerwald, Henning OBC 25:23 35.456 49/59 OVBM 8/8 0.8937
50 Soucy, Dominic --- 25:28 35.340 50/59 OSEM 19/21 0.8652
51 Reid, George OBC 25:34 35.202 51/59 OVAM 12/14  
52 Smallwood, Steve --- 25:36 35.156 52/59 OVAM 13/14  
53 Chen, Jonathan --- 25:58 34.660 53/59 OSEM 20/21 0.8589
54 Fortey, Brian ABC 26:06 34.483 54/59 OJUM 3/3 0.8683
McCarthy, Steven --- 26:06 34.483 54/59 OSEM 21/21 1.0606
56 Pazdzior, Ellen  OBC 26:07 34.461 56/59 OVAF 3/4 0.5644
57 Montserrat, Fabienne OBC 27:21 32.907 57/59 OVAF 4/4 0.9461
58 Gerber, Rosmarie OBC 27:38 32.569 58/59 OVBF 2/2 0.9276
59 Austen, Ian 
(warming up his cyclocross bike)
OBC 36:05 24.942 59/59 OVAM 14/14 0.2366
 
Average Speed of all of the above 59 finishes (885km in 23:05:44):38.319
>>>Average of the Average Speeds for these 59 finishes38.670<<<
 

The number of data records shown above is 59
The server processing of your query took: 0 wallclock secs ( 0.11 usr + 0.02 sys = 0.13 CPU)

     


Apr 1 (Good Friday) Apr 14 Apr 21 Apr 28
May 3 May 5 May 10 May 12 (22km) May 15 (40km) May 17 May 19 May 24 May 24 (10km) May 26 (cancelled) May 29 (40km)
Jun 2 Jun 5 (38km) Jun 7 Jun 9 Jun 14 (40km) Jun 14 Jun 16 Jun 21 Jun 21 Jun 23 Jun 26 (40km/80km) Jun 28 (40km) Jun 28 Jun 29
Jul 5 Jul 6 Jul 7 Jul 10 (22km) Jul 12 Jul 13 Jul 14 Jul 19 Jul 20 Jul 21 Jul 24 (38km) Jul 26 Jul 27 Jul 28
Aug 2 Aug 3 Aug 9 Aug 10 Aug 11 Aug 14 (40km/80km) Aug 16 Aug 17 Aug 18 Aug 20 (22km) Aug 23 Aug 24 Aug 28 (38km) Aug 30 (Invitational) Aug 31
Sep 1 Sep 6
  Sep 8  
Sep 13 Sep 20 Sep 25 (40km)

OTT Rankings
Best       Best by category
WTT Rankings for OBC Members
5 Best 15km     5 Best 15km by category
OBC Member Best Three 15km Rankings
Overall     by category
OBC BAR Ranking
Overall     by category     Rider "Consistency-Graph"
ABC BAR Ranking
Overall     by category     Rider "Consistency-Graph"
Other years
TT Calculator All TT People All TT events
ABC Home VVV Home
CKAP GOLD MEDAL
Other Links

Please send your comments and suggestions to: Celia McInnis
Copyright © 1998-2011 Celia McInnis. All rights reserved. Links are welcomed.